Time;durP1;ratioP1;P1;durP2;ratioP2;P2;SDS_P1;SDS_P2;PMS_P1;PMS_P2;Temp;Humidity;BMP_temperature;BMP_pressure;BME280_temperature;BME280_humidity;BME280_pressure;Samples;Min_cycle;Max_cycle;Signal;HPM_P1;HPM_P2
2023/05/19 00:00:02;;;;;;;14.70;14.30;;;20.80;61.20;;;;;;5035196;28;20529;-61
2023/05/19 00:02:32;;;;;;;15.00;14.40;;;20.90;61.40;;;;;;5035261;28;20802;-62
2023/05/19 00:05:00;;;;;;;14.63;14.13;;;20.80;61.30;;;;;;5035036;28;20534;-61
2023/05/19 00:07:31;;;;;;;15.10;14.60;;;20.80;61.30;;;;;;5035185;28;20445;-60
2023/05/19 00:09:58;;;;;;;14.43;14.00;;;20.80;61.40;;;;;;5035319;28;20449;-62
2023/05/19 00:12:26;;;;;;;16.37;15.57;;;20.80;61.40;;;;;;5034959;28;20485;-61
2023/05/19 00:14:55;;;;;;;15.00;14.50;;;20.80;61.40;;;;;;5035022;28;20551;-62
2023/05/19 00:17:22;;;;;;;14.30;13.90;;;20.80;61.50;;;;;;5035177;28;20888;-62
2023/05/19 00:19:49;;;;;;;15.07;14.67;;;20.80;61.50;;;;;;5034996;28;20485;-62
2023/05/19 00:22:16;;;;;;;15.77;15.17;;;20.80;61.50;;;;;;5034919;28;20532;-62
2023/05/19 00:24:43;;;;;;;16.40;15.80;;;20.80;61.50;;;;;;5034898;28;20907;-62
2023/05/19 00:27:09;;;;;;;14.43;14.00;;;20.80;61.60;;;;;;5034901;28;20477;-62
2023/05/19 00:29:36;;;;;;;15.70;15.20;;;20.70;61.50;;;;;;5034774;28;20489;-61
2023/05/19 00:32:05;;;;;;;14.00;13.60;;;20.70;61.60;;;;;;5034836;28;20532;-62
2023/05/19 00:34:32;;;;;;;14.73;14.33;;;20.70;61.60;;;;;;5034421;28;20531;-62
2023/05/19 00:36:59;;;;;;;15.60;15.10;;;20.70;61.70;;;;;;5034769;28;20532;-62
2023/05/19 00:39:26;;;;;;;15.40;14.90;;;20.70;61.70;;;;;;5034756;28;20541;-62
2023/05/19 00:41:53;;;;;;;15.20;14.70;;;20.70;61.70;;;;;;5034648;28;20520;-62
2023/05/19 00:44:20;;;;;;;15.40;15.00;;;20.70;61.80;;;;;;5034219;28;20976;-62
2023/05/19 00:46:47;;;;;;;16.10;15.60;;;20.70;61.80;;;;;;5034728;28;20862;-61
2023/05/19 00:49:15;;;;;;;15.90;15.40;;;20.70;61.90;;;;;;5034456;28;20911;-62
2023/05/19 00:51:42;;;;;;;15.90;15.40;;;20.70;61.90;;;;;;5034584;28;20476;-63
2023/05/19 00:54:09;;;;;;;15.83;15.40;;;20.70;61.90;;;;;;5034158;28;20472;-62
2023/05/19 00:56:36;;;;;;;15.20;14.80;;;20.70;61.90;;;;;;5034311;28;20544;-62
2023/05/19 00:59:03;;;;;;;14.10;13.70;;;20.70;61.90;;;;;;5034300;28;20481;-61
2023/05/19 01:01:31;;;;;;;15.77;15.37;;;20.70;61.90;;;;;;5034380;28;20888;-62
2023/05/19 01:03:58;;;;;;;15.70;15.00;;;20.70;62.00;;;;;;5034110;28;20456;-62
2023/05/19 01:06:28;;;;;;;15.83;15.30;;;20.70;62.10;;;;;;5034112;28;20504;-62
2023/05/19 01:08:56;;;;;;;15.10;14.60;;;20.70;62.00;;;;;;5034054;28;20472;-61
2023/05/19 01:11:23;;;;;;;14.83;14.33;;;20.60;61.90;;;;;;5033501;28;20544;-63
2023/05/19 01:13:50;;;;;;;14.80;14.30;;;20.70;62.10;;;;;;5033902;28;20452;-62
2023/05/19 01:16:29;;;;;;;15.00;14.60;;;20.70;62.10;;;;;;5033886;28;20551;-62
2023/05/19 01:19:09;;;;;;;14.90;14.50;;;20.70;62.10;;;;;;5033992;28;20473;-63
2023/05/19 01:22:14;;;;;;;15.13;14.73;;;20.60;62.00;;;;;;5033989;28;20445;-62
2023/05/19 01:25:03;;;;;;;15.40;14.90;;;20.60;62.10;;;;;;5033696;28;20476;-63
2023/05/19 01:27:46;;;;;;;14.60;14.10;;;20.60;62.20;;;;;;5053593;28;20452;-61
2023/05/19 01:30:33;;;;;;;14.80;14.40;;;20.60;62.30;;;;;;5053706;28;20436;-60
2023/05/19 01:33:03;;;;;;;15.93;15.43;;;20.60;62.30;;;;;;5053535;28;20486;-62
2023/05/19 01:35:31;;;;;;;14.87;14.37;;;20.60;62.30;;;;;;5053111;28;20544;-62
2023/05/19 01:38:00;;;;;;;17.80;17.30;;;20.60;62.30;;;;;;5053577;28;20953;-62
2023/05/19 01:40:28;;;;;;;18.70;18.10;;;20.60;62.40;;;;;;5053588;28;20863;-62
2023/05/19 01:42:56;;;;;;;14.90;14.40;;;20.60;62.40;;;;;;5053312;28;20523;-62
2023/05/19 01:45:24;;;;;;;14.50;14.10;;;20.60;62.40;;;;;;5051503;28;20543;-62
2023/05/19 01:47:54;;;;;;;14.70;14.30;;;20.60;62.40;;;;;;5033390;28;20537;-63
2023/05/19 01:50:22;;;;;;;16.93;16.43;;;20.60;62.40;;;;;;5033441;28;20528;-63
2023/05/19 01:52:50;;;;;;;15.60;15.00;;;20.60;62.40;;;;;;5034204;28;20472;-62
2023/05/19 01:55:17;;;;;;;15.80;15.30;;;20.60;62.40;;;;;;5033259;28;20526;-60
2023/05/19 01:57:52;;;;;;;16.00;15.60;;;20.60;62.40;;;;;;5033235;28;20449;-62
2023/05/19 02:00:31;;;;;;;14.70;14.30;;;20.60;62.40;;;;;;5033266;28;20591;-61
2023/05/19 02:03:15;;;;;;;15.33;14.83;;;20.60;62.50;;;;;;5033120;28;20441;-62
2023/05/19 02:06:03;;;;;;;17.40;16.90;;;20.50;62.40;;;;;;5032995;28;20560;-62
2023/05/19 02:08:37;;;;;;;15.37;14.87;;;20.50;62.50;;;;;;5033077;28;20585;-62
2023/05/19 02:11:10;;;;;;;16.83;16.13;;;20.50;62.50;;;;;;5033148;28;20531;-62
2023/05/19 02:13:42;;;;;;;15.60;15.20;;;20.50;62.50;;;;;;5032679;28;21000;-60
2023/05/19 02:16:12;;;;;;;14.80;14.40;;;20.50;62.60;;;;;;5032821;28;20556;-62
2023/05/19 02:18:44;;;;;;;17.00;16.50;;;20.50;62.70;;;;;;5033255;28;20835;-62
2023/05/19 02:21:12;;;;;;;15.30;14.80;;;20.50;62.60;;;;;;5032399;28;20471;-63
2023/05/19 02:23:39;;;;;;;14.90;14.50;;;20.50;62.70;;;;;;5041903;28;20452;-62
2023/05/19 02:26:07;;;;;;;17.13;16.60;;;20.50;62.70;;;;;;5046113;28;20468;-62
2023/05/19 02:28:35;;;;;;;16.90;16.40;;;20.50;62.70;;;;;;5034972;28;20484;-62
2023/05/19 02:31:04;;;;;;;16.00;15.50;;;20.50;62.80;;;;;;5032642;28;20449;-60
2023/05/19 02:33:31;;;;;;;15.83;15.33;;;20.40;62.70;;;;;;5044066;28;20539;-63
2023/05/19 02:35:59;;;;;;;14.80;14.40;;;20.40;62.80;;;;;;5052365;28;20471;-62
2023/05/19 02:38:26;;;;;;;15.93;15.43;;;20.40;62.80;;;;;;5052460;28;20882;-60
2023/05/19 02:40:53;;;;;;;15.30;14.90;;;20.50;62.90;;;;;;5052335;28;20528;-63
2023/05/19 02:43:20;;;;;;;16.90;16.40;;;20.40;62.80;;;;;;5041731;28;20540;-62
2023/05/19 02:45:46;;;;;;;15.70;15.20;;;20.40;62.80;;;;;;5032206;28;20552;-62
2023/05/19 02:48:13;;;;;;;15.53;15.03;;;20.40;62.80;;;;;;5032143;28;20528;-60
2023/05/19 02:50:41;;;;;;;16.10;15.50;;;20.40;62.80;;;;;;5032266;28;20499;-63
2023/05/19 02:53:10;;;;;;;16.97;16.30;;;20.50;62.90;;;;;;5040403;28;20883;-63
2023/05/19 02:55:36;;;;;;;16.67;16.20;;;20.40;62.90;;;;;;5052151;28;20547;-63
2023/05/19 02:58:04;;;;;;;16.17;15.57;;;20.40;62.80;;;;;;5052193;28;20535;-62
2023/05/19 03:00:30;;;;;;;15.17;14.77;;;20.40;62.90;;;;;;5052008;28;20527;-63
2023/05/19 03:03:01;;;;;;;18.30;17.80;;;20.40;62.80;;;;;;5032195;28;20523;-63
2023/05/19 03:05:28;;;;;;;16.33;15.70;;;20.40;62.90;;;;;;5032086;28;20480;-63
2023/05/19 03:07:55;;;;;;;15.93;15.40;;;20.40;62.90;;;;;;5032150;28;20449;-63
2023/05/19 03:10:23;;;;;;;14.80;14.40;;;20.40;63.00;;;;;;5032024;28;20491;-62
2023/05/19 03:12:50;;;;;;;14.70;14.30;;;20.40;63.00;;;;;;5050916;28;20527;-63
2023/05/19 03:15:18;;;;;;;14.90;14.43;;;20.40;63.00;;;;;;5051902;28;20464;-63
2023/05/19 03:17:45;;;;;;;16.40;15.90;;;20.40;63.00;;;;;;5051928;28;20806;-63
2023/05/19 03:20:14;;;;;;;16.40;15.90;;;20.40;63.10;;;;;;5052029;28;20878;-62
2023/05/19 03:22:41;;;;;;;16.20;15.80;;;20.30;63.00;;;;;;5034072;28;20819;-62
2023/05/19 03:25:09;;;;;;;16.10;15.70;;;20.40;63.20;;;;;;5031634;28;20555;-62
2023/05/19 03:27:37;;;;;;;18.70;18.10;;;20.30;63.80;;;;;;5031919;28;20472;-62
2023/05/19 03:30:04;;;;;;;16.27;15.80;;;20.30;63.00;;;;;;5031858;28;20568;-61
2023/05/19 03:32:32;;;;;;;17.47;16.87;;;20.30;63.00;;;;;;5031523;28;20456;-62
2023/05/19 03:34:59;;;;;;;16.43;15.93;;;20.30;63.10;;;;;;5031545;28;20468;-64
2023/05/19 03:37:26;;;;;;;18.20;17.60;;;20.30;63.00;;;;;;5031712;28;20451;-63
2023/05/19 03:39:53;;;;;;;17.33;16.83;;;20.30;63.00;;;;;;5039736;28;20524;-63
2023/05/19 03:42:20;;;;;;;15.60;15.10;;;20.30;63.10;;;;;;5051560;28;20527;-62
2023/05/19 03:44:48;;;;;;;15.93;15.43;;;20.30;63.10;;;;;;5051449;28;20492;-62
2023/05/19 03:47:15;;;;;;;16.27;15.87;;;20.30;63.10;;;;;;5051500;28;20444;-63
2023/05/19 03:49:41;;;;;;;15.90;15.40;;;20.30;63.10;;;;;;5045014;28;20565;-64
2023/05/19 03:52:09;;;;;;;16.43;15.93;;;20.30;63.00;;;;;;5031438;28;20481;-62
2023/05/19 03:54:38;;;;;;;16.77;16.27;;;20.30;63.00;;;;;;5031275;28;20456;-62
2023/05/19 03:57:05;;;;;;;17.63;17.03;;;20.30;63.10;;;;;;5031494;28;20865;-63
2023/05/19 03:59:34;;;;;;;17.77;17.17;;;20.30;63.10;;;;;;5031399;28;20499;-63
2023/05/19 04:02:02;;;;;;;17.20;16.80;;;20.30;63.00;;;;;;5031394;28;20453;-62
2023/05/19 04:04:29;;;;;;;17.37;16.87;;;20.30;63.00;;;;;;5030969;28;21007;-62
2023/05/19 04:06:56;;;;;;;17.37;16.67;;;20.20;63.00;;;;;;5031780;28;20453;-61
2023/05/19 04:09:23;;;;;;;18.23;17.67;;;20.30;63.20;;;;;;5034054;28;20480;-62
2023/05/19 04:11:50;;;;;;;20.97;20.37;;;20.20;63.00;;;;;;5051151;28;20935;-61
2023/05/19 04:14:18;;;;;;;19.10;18.60;;;20.20;63.00;;;;;;5051057;28;20531;-62
2023/05/19 04:16:45;;;;;;;21.50;20.80;;;20.30;63.10;;;;;;5037621;28;20500;-63
2023/05/19 04:19:13;;;;;;;18.90;18.20;;;20.30;62.80;;;;;;5031211;28;20528;-63
2023/05/19 04:21:40;;;;;;;21.80;20.80;;;20.30;62.70;;;;;;5031109;28;20481;-64
2023/05/19 04:24:07;;;;;;;21.50;20.43;;;20.30;63.40;;;;;;5030716;28;20528;-64
2023/05/19 04:26:34;;;;;;;20.77;20.00;;;20.30;62.30;;;;;;5039511;28;20504;-62
2023/05/19 04:29:03;;;;;;;20.40;19.63;;;20.40;63.00;;;;;;5051038;28;20515;-63
2023/05/19 04:31:30;;;;;;;21.87;21.17;;;20.50;62.90;;;;;;5050886;28;20451;-63
2023/05/19 04:33:57;;;;;;;22.90;21.80;;;20.60;63.30;;;;;;5049841;28;20472;-64
2023/05/19 04:36:25;;;;;;;24.30;23.23;;;20.60;63.20;;;;;;5030946;28;20543;-62
2023/05/19 04:38:53;;;;;;;22.03;21.23;;;20.70;63.50;;;;;;5030897;28;20476;-62
2023/05/19 04:41:20;;;;;;;21.60;20.93;;;20.80;64.10;;;;;;5030933;28;20852;-63
2023/05/19 04:43:48;;;;;;;23.07;22.17;;;20.80;63.60;;;;;;5030656;28;20444;-64
2023/05/19 04:46:16;;;;;;;23.20;22.30;;;20.90;63.70;;;;;;5037352;28;20467;-64
2023/05/19 04:48:42;;;;;;;22.50;21.70;;;20.90;63.40;;;;;;5034498;28;20498;-64
2023/05/19 04:51:12;;;;;;;23.23;22.27;;;20.90;63.10;;;;;;5034544;28;20437;-64
2023/05/19 04:53:41;;;;;;;21.67;20.90;;;20.90;63.40;;;;;;5034202;28;20441;-63
2023/05/19 04:56:12;;;;;;;21.77;20.93;;;21.00;63.70;;;;;;5051370;28;20551;-63
2023/05/19 04:58:40;;;;;;;22.93;22.13;;;21.00;63.20;;;;;;5054262;28;20448;-62
2023/05/19 05:01:08;;;;;;;22.07;21.17;;;21.10;63.10;;;;;;5054355;28;21018;-63
2023/05/19 05:03:35;;;;;;;21.67;20.97;;;21.10;62.90;;;;;;5037216;28;20449;-64
2023/05/19 05:06:02;;;;;;;22.93;22.00;;;21.10;62.60;;;;;;5034044;28;20538;-63
2023/05/19 05:08:29;;;;;;;23.47;22.50;;;21.10;62.50;;;;;;5034350;28;20479;-65
2023/05/19 05:10:58;;;;;;;23.47;22.17;;;21.10;62.40;;;;;;5035337;28;20563;-65
2023/05/19 05:13:25;;;;;;;23.30;22.50;;;21.20;62.30;;;;;;5052664;28;20874;-63
2023/05/19 05:15:52;;;;;;;21.87;21.17;;;21.20;62.10;;;;;;5058463;28;21002;-66
2023/05/19 05:18:20;;;;;;;20.93;20.33;;;21.10;61.60;;;;;;5058637;28;20500;-64
2023/05/19 05:20:48;;;;;;;23.47;22.73;;;21.10;61.60;;;;;;5058775;28;20450;-64
2023/05/19 05:23:15;;;;;;;22.03;21.33;;;21.10;61.60;;;;;;5045536;28;20449;-65
2023/05/19 05:25:43;;;;;;;21.63;20.90;;;21.20;61.60;;;;;;5038944;28;20485;-65
2023/05/19 05:28:11;;;;;;;22.70;21.80;;;21.20;62.10;;;;;;5036078;28;20476;-60
2023/05/19 05:30:40;;;;;;;23.90;22.60;;;21.20;63.00;;;;;;5033691;28;21011;-60
2023/05/19 05:33:07;;;;;;;26.00;24.10;;;21.20;64.50;;;;;;5043530;28;20463;-62
2023/05/19 05:35:34;;;;;;;24.93;22.93;;;21.30;66.30;;;;;;5053436;28;20550;-60
2023/05/19 05:38:01;;;;;;;27.10;24.90;;;21.30;68.40;;;;;;5053523;28;20536;-62
2023/05/19 05:40:28;;;;;;;27.80;25.70;;;21.30;70.10;;;;;;5051575;28;20440;-61
2023/05/19 05:42:57;;;;;;;24.70;23.10;;;21.40;72.40;;;;;;5033513;28;20528;-61
2023/05/19 05:45:25;;;;;;;28.50;25.80;;;21.40;73.80;;;;;;5033432;28;20544;-64
2023/05/19 05:47:53;;;;;;;28.17;26.30;;;21.50;74.90;;;;;;5033386;28;20536;-60
2023/05/19 05:50:20;;;;;;;32.03;29.93;;;21.40;74.60;;;;;;5033438;28;20568;-62
2023/05/19 05:52:48;;;;;;;27.70;25.37;;;21.50;74.10;;;;;;5051595;28;21011;-62
2023/05/19 05:55:17;;;;;;;25.57;23.63;;;21.40;74.30;;;;;;5053129;28;20543;-63
2023/05/19 05:57:44;;;;;;;27.80;26.00;;;21.50;74.50;;;;;;5052955;28;20455;-64
2023/05/19 06:00:14;;;;;;;25.53;23.73;;;21.50;74.20;;;;;;5052952;28;20531;-63
2023/05/19 06:02:43;;;;;;;27.77;26.17;;;21.50;73.90;;;;;;5034074;28;20952;-65
2023/05/19 06:05:12;;;;;;;25.87;24.27;;;21.60;73.20;;;;;;5032884;28;20511;-63
2023/05/19 06:07:39;;;;;;;26.50;24.87;;;21.50;72.40;;;;;;5033075;28;20952;-65
2023/05/19 06:10:08;;;;;;;26.27;24.80;;;21.50;71.30;;;;;;5033072;28;20589;-61
2023/05/19 06:12:38;;;;;;;27.87;25.80;;;21.50;71.40;;;;;;5050038;28;20480;-63
2023/05/19 06:15:06;;;;;;;26.20;24.57;;;21.50;71.10;;;;;;5053004;28;20467;-62
2023/05/19 06:17:34;;;;;;;27.03;25.47;;;21.50;70.80;;;;;;5052594;28;20888;-62
2023/05/19 06:20:04;;;;;;;24.77;23.23;;;21.50;70.50;;;;;;5052782;28;20944;-63
2023/05/19 06:22:31;;;;;;;26.07;24.63;;;21.50;70.30;;;;;;5035662;28;20445;-62
2023/05/19 06:24:58;;;;;;;26.77;25.10;;;21.40;69.80;;;;;;5032615;28;20548;-62
2023/05/19 06:27:25;;;;;;;25.77;24.03;;;21.40;69.50;;;;;;5032691;28;20536;-62
2023/05/19 06:29:52;;;;;;;25.00;23.60;;;21.50;69.40;;;;;;5032539;28;20580;-61
2023/05/19 06:32:19;;;;;;;25.40;24.50;;;21.40;69.00;;;;;;5046819;28;20444;-62
2023/05/19 06:34:52;;;;;;;23.27;22.07;;;21.40;68.70;;;;;;5052470;28;20492;-62
2023/05/19 06:37:21;;;;;;;23.10;22.03;;;21.40;68.40;;;;;;5052405;28;20480;-62
2023/05/19 06:39:51;;;;;;;23.40;22.27;;;21.40;68.20;;;;;;5052389;28;20459;-62
2023/05/19 06:42:20;;;;;;;26.97;25.03;;;21.50;68.10;;;;;;5037800;28;20815;-62
2023/05/19 06:44:48;;;;;;;26.30;24.80;;;21.40;67.90;;;;;;5032231;28;20535;-58
2023/05/19 06:47:15;;;;;;;25.30;24.20;;;21.40;68.30;;;;;;5032334;28;20511;-60
2023/05/19 06:49:42;;;;;;;24.67;23.50;;;21.50;68.60;;;;;;5036592;28;20562;-63
2023/05/19 06:52:09;;;;;;;25.63;24.23;;;21.40;67.90;;;;;;5049196;28;20452;-60
2023/05/19 06:54:37;;;;;;;24.60;23.50;;;21.40;67.00;;;;;;5051798;28;20962;-60
2023/05/19 06:57:04;;;;;;;26.67;25.20;;;21.50;67.40;;;;;;5052089;28;20444;-62
2023/05/19 06:59:31;;;;;;;24.80;23.80;;;21.50;67.30;;;;;;5047880;28;21020;-61
2023/05/19 07:01:58;;;;;;;25.60;24.30;;;21.50;67.20;;;;;;5032625;28;20537;-59
2023/05/19 07:04:26;;;;;;;26.33;25.10;;;21.50;66.60;;;;;;5031639;28;20536;-60
2023/05/19 07:06:53;;;;;;;25.90;24.50;;;21.60;66.60;;;;;;5031969;28;20441;-61
2023/05/19 07:09:20;;;;;;;25.00;24.10;;;21.60;65.80;;;;;;5031308;28;20491;-60
2023/05/19 07:11:48;;;;;;;24.73;23.50;;;21.60;65.80;;;;;;5031694;28;21007;-59
2023/05/19 07:14:15;;;;;;;24.23;23.13;;;21.60;65.40;;;;;;5031680;28;20545;-59
2023/05/19 07:16:42;;;;;;;24.07;22.87;;;21.60;65.30;;;;;;5031745;28;20552;-59
2023/05/19 07:19:09;;;;;;;24.93;23.83;;;21.60;65.30;;;;;;5031820;28;20887;-61
2023/05/19 07:21:36;;;;;;;25.93;24.43;;;21.70;64.50;;;;;;5051272;28;20979;-61
2023/05/19 07:24:03;;;;;;;24.17;23.37;;;21.70;64.10;;;;;;5051424;28;20896;-60
2023/05/19 07:26:30;;;;;;;25.73;24.73;;;21.60;64.00;;;;;;5051560;28;20506;-60
2023/05/19 07:28:58;;;;;;;27.17;25.90;;;21.60;63.50;;;;;;5051658;28;20890;-60
2023/05/19 07:31:25;;;;;;;27.37;26.27;;;21.60;63.30;;;;;;5033244;28;20564;-59
2023/05/19 07:33:52;;;;;;;23.73;22.80;;;21.60;63.00;;;;;;5031508;28;20532;-60
2023/05/19 07:36:19;;;;;;;26.27;24.87;;;21.60;62.60;;;;;;5031391;28;20560;-58
2023/05/19 07:38:46;;;;;;;26.17;24.60;;;21.70;62.30;;;;;;5036950;28;21061;-59
2023/05/19 07:41:13;;;;;;;24.90;23.80;;;21.70;62.20;;;;;;5031482;28;20441;-60
2023/05/19 07:43:40;;;;;;;26.07;24.80;;;21.70;61.80;;;;;;5031328;28;20684;-60
2023/05/19 07:46:08;;;;;;;23.47;22.57;;;21.70;61.50;;;;;;5031313;28;20552;-59
2023/05/19 07:48:35;;;;;;;21.40;20.40;;;21.60;61.20;;;;;;5030754;28;20473;-59
2023/05/19 07:51:02;;;;;;;24.60;23.70;;;21.70;60.80;;;;;;5047713;28;20555;-60
2023/05/19 07:53:29;;;;;;;22.57;21.77;;;21.70;60.20;;;;;;5051024;28;20530;-63
2023/05/19 07:55:56;;;;;;;21.50;20.80;;;21.80;59.80;;;;;;5051786;28;20464;-60
2023/05/19 07:58:23;;;;;;;23.77;22.90;;;21.80;59.50;;;;;;5051856;28;20452;-61
2023/05/19 08:00:50;;;;;;;24.70;23.80;;;21.80;59.30;;;;;;5034686;28;20524;-61
2023/05/19 08:03:19;;;;;;;25.70;24.70;;;21.80;59.10;;;;;;5031636;28;20531;-61
2023/05/19 08:05:46;;;;;;;23.20;22.03;;;21.80;59.10;;;;;;5031593;28;20445;-62
2023/05/19 08:08:15;;;;;;;20.07;19.27;;;21.80;59.00;;;;;;5030682;28;20476;-59
2023/05/19 08:10:42;;;;;;;23.70;22.60;;;21.80;58.60;;;;;;5047452;28;20482;-61
2023/05/19 08:13:09;;;;;;;24.77;23.83;;;21.80;58.30;;;;;;5051595;28;21044;-60
2023/05/19 08:15:36;;;;;;;24.17;23.20;;;21.90;58.10;;;;;;5051565;28;20868;-60
2023/05/19 08:18:03;;;;;;;19.80;19.00;;;21.80;57.80;;;;;;5051010;28;20463;-63
2023/05/19 08:20:32;;;;;;;21.13;20.33;;;21.90;57.70;;;;;;5052965;28;20435;-66
2023/05/19 08:22:59;;;;;;;25.27;24.37;;;22.00;57.50;;;;;;5054712;28;20205;-66
2023/05/19 08:25:26;;;;;;;24.30;23.50;;;22.00;57.10;;;;;;5055615;28;20472;-66
2023/05/19 08:27:53;;;;;;;24.30;23.50;;;22.00;57.20;;;;;;5055860;28;20476;-66
2023/05/19 08:30:20;;;;;;;23.37;22.47;;;22.00;56.80;;;;;;5055453;28;20538;-65
2023/05/19 08:32:47;;;;;;;21.08;20.08;;;22.00;56.40;;;;;;5053196;28;20465;-61
2023/05/19 08:35:14;;;;;;;23.13;22.23;;;21.90;55.80;;;;;;5054757;28;20313;-62
2023/05/19 08:37:42;;;;;;;22.70;21.80;;;21.90;56.00;;;;;;5055038;28;20480;-63
2023/05/19 08:40:16;;;;;;;22.40;21.67;;;21.90;55.70;;;;;;5035612;28;20552;-60
2023/05/19 08:42:43;;;;;;;22.23;21.40;;;21.80;54.90;;;;;;5034616;28;20444;-62
2023/05/19 08:45:10;;;;;;;22.10;20.97;;;21.80;54.80;;;;;;5034585;28;20488;-62
2023/05/19 08:47:37;;;;;;;22.27;21.27;;;21.70;54.70;;;;;;5034837;28;20449;-60
2023/05/19 08:50:08;;;;;;;24.07;23.07;;;21.70;54.70;;;;;;5052353;28;20505;-62
2023/05/19 08:52:48;;;;;;;22.83;22.03;;;21.60;54.50;;;;;;5054447;28;20452;-62
2023/05/19 08:55:26;;;;;;;21.57;20.57;;;21.60;54.50;;;;;;5054370;28;20820;-62
2023/05/19 08:57:53;;;;;;;22.50;21.63;;;21.60;54.30;;;;;;5054508;28;20923;-62
2023/05/19 09:00:21;;;;;;;24.23;23.20;;;21.50;54.40;;;;;;5053595;28;20886;-62
2023/05/19 09:02:49;;;;;;;22.33;21.33;;;21.60;54.30;;;;;;5053838;28;20951;-61
2023/05/19 09:05:17;;;;;;;23.03;22.23;;;21.50;53.90;;;;;;5054142;28;20467;-63
2023/05/19 09:07:47;;;;;;;23.63;22.73;;;21.50;54.10;;;;;;5054229;28;20475;-62
2023/05/19 09:10:15;;;;;;;22.43;21.73;;;21.50;54.00;;;;;;5049233;28;21021;-63
2023/05/19 09:12:44;;;;;;;23.67;22.80;;;21.40;54.00;;;;;;5033985;28;20519;-60
2023/05/19 09:15:11;;;;;;;22.67;21.87;;;21.40;53.80;;;;;;5033924;28;20469;-61
2023/05/19 09:17:38;;;;;;;23.35;22.35;;;21.40;53.70;;;;;;5033921;28;20442;-62
2023/05/19 09:20:09;;;;;;;22.27;21.47;;;21.30;53.60;;;;;;5050967;28;20613;-60
2023/05/19 09:22:41;;;;;;;19.55;18.75;;;21.30;53.50;;;;;;5051062;28;20484;-62
2023/05/19 09:25:19;;;;;;;23.43;22.53;;;21.30;54.20;;;;;;5049830;28;20584;-62
2023/05/19 09:27:46;;;;;;;23.77;22.87;;;21.40;54.50;;;;;;5038156;28;20524;-64
2023/05/19 09:30:15;;;;;;;20.38;19.58;;;21.50;53.60;;;;;;5045573;28;20996;-62
2023/05/19 09:32:42;;;;;;;23.00;22.30;;;21.50;53.60;;;;;;5058315;28;20565;-61
2023/05/19 09:35:10;;;;;;;24.80;23.80;;;21.50;53.70;;;;;;5070017;28;20577;-62
